createdAt,value
2019-04-26T00:00:10.101Z,0.00
2019-04-26T00:01:09.993Z,0.00
2019-04-26T00:02:09.883Z,0.00
2019-04-26T00:03:10.210Z,0.00
2019-04-26T00:04:10.204Z,0.00
2019-04-26T00:05:10.154Z,0.00
2019-04-26T00:06:09.016Z,0.00
2019-04-26T00:07:09.558Z,0.00
2019-04-26T00:08:09.280Z,0.00
2019-04-26T00:09:09.408Z,0.00
2019-04-26T00:10:10.365Z,0.00
2019-04-26T00:11:09.642Z,0.00
2019-04-26T00:12:10.708Z,0.00
2019-04-26T00:13:09.818Z,0.00
2019-04-26T00:14:09.869Z,0.00
2019-04-26T00:15:08.882Z,0.00
2019-04-26T00:16:08.893Z,0.00
2019-04-26T00:17:09.235Z,0.00
2019-04-26T00:18:08.818Z,0.00
2019-04-26T00:19:09.408Z,0.00
2019-04-26T00:20:08.810Z,0.00
2019-04-26T00:21:09.618Z,0.00
2019-04-26T00:22:08.797Z,0.00
2019-04-26T00:23:10.616Z,0.00
2019-04-26T00:24:08.750Z,0.00
2019-04-26T00:25:08.766Z,0.00
2019-04-26T00:26:08.724Z,0.00
2019-04-26T00:27:08.731Z,0.00
2019-04-26T00:28:08.702Z,0.00
2019-04-26T00:29:08.691Z,0.00
2019-04-26T00:30:08.703Z,0.00
2019-04-26T00:31:08.674Z,0.00
2019-04-26T00:32:08.714Z,0.00
2019-04-26T00:33:08.647Z,0.00
2019-04-26T00:34:08.637Z,0.00
2019-04-26T00:35:08.626Z,0.00
2019-04-26T00:36:08.637Z,0.00
2019-04-26T00:37:08.629Z,0.00
2019-04-26T00:38:08.588Z,0.00
2019-04-26T00:39:08.579Z,0.00
2019-04-26T00:40:08.601Z,0.00
2019-04-26T00:41:08.558Z,0.00
2019-04-26T00:42:08.629Z,0.00
2019-04-26T00:43:08.536Z,0.00
2019-04-26T00:44:08.548Z,0.00
2019-04-26T00:45:08.537Z,0.00
2019-04-26T00:46:08.556Z,0.00
2019-04-26T00:47:08.557Z,0.00
2019-04-26T00:48:08.544Z,0.00
2019-04-26T00:49:08.520Z,0.00
2019-04-26T00:50:08.552Z,0.00
2019-04-26T00:51:08.505Z,0.00
2019-04-26T00:52:08.565Z,0.00
2019-04-26T00:53:08.459Z,0.00
2019-04-26T00:54:08.436Z,0.00
2019-04-26T00:55:08.406Z,0.00
2019-04-26T00:56:08.398Z,0.00
2019-04-26T00:57:08.408Z,0.00
2019-04-26T00:58:08.374Z,0.00
2019-04-26T00:59:08.362Z,0.00
2019-04-26T01:00:08.366Z,0.00
2019-04-26T01:01:08.336Z,0.00
2019-04-26T01:02:08.387Z,0.00
2019-04-26T01:03:08.322Z,0.00
2019-04-26T01:04:08.310Z,0.00
2019-04-26T01:05:08.302Z,0.00
2019-04-26T01:06:08.292Z,0.00
2019-04-26T01:07:08.305Z,0.00
2019-04-26T01:08:08.263Z,0.00
2019-04-26T01:09:08.246Z,0.00
2019-04-26T01:10:08.237Z,0.00
2019-04-26T01:11:08.238Z,0.00
2019-04-26T01:12:08.213Z,0.00
2019-04-26T01:13:08.230Z,0.00
2019-04-26T01:14:08.192Z,0.00
2019-04-26T01:15:08.181Z,0.00
2019-04-26T01:16:08.192Z,0.00
2019-04-26T01:17:08.164Z,0.00
2019-04-26T01:18:08.212Z,0.00
2019-04-26T01:19:08.140Z,0.00
2019-04-26T01:20:08.123Z,0.00
2019-04-26T01:21:08.138Z,0.00
2019-04-26T01:22:08.151Z,0.00
2019-04-26T01:23:08.119Z,0.00
2019-04-26T01:24:08.116Z,0.00
2019-04-26T01:25:08.080Z,0.00
2019-04-26T01:26:08.063Z,0.00
2019-04-26T01:27:08.095Z,0.00
2019-04-26T01:28:08.099Z,0.00
2019-04-26T01:29:08.029Z,0.00
2019-04-26T01:30:08.070Z,0.00
2019-04-26T01:31:08.009Z,0.00
2019-04-26T01:32:07.996Z,0.00
2019-04-26T01:33:08.033Z,0.00
2019-04-26T01:34:07.978Z,0.00
2019-04-26T01:35:07.965Z,0.00
2019-04-26T01:36:13.210Z,0.00
2019-04-26T01:37:08.954Z,0.00
2019-04-26T01:38:07.979Z,0.00
2019-04-26T01:39:07.917Z,0.00
2019-04-26T01:40:07.916Z,0.00
2019-04-26T01:41:07.904Z,0.00
2019-04-26T01:42:07.894Z,0.00
2019-04-26T01:43:07.950Z,0.00
2019-04-26T01:44:07.868Z,0.00
2019-04-26T01:45:07.855Z,0.00
2019-04-26T01:46:07.835Z,0.00
2019-04-26T01:47:07.828Z,0.00
2019-04-26T01:48:07.841Z,0.00
2019-04-26T01:49:07.808Z,0.00
2019-04-26T01:50:07.794Z,0.00
2019-04-26T01:51:07.791Z,0.00
2019-04-26T01:52:07.772Z,0.00
2019-04-26T01:53:07.817Z,0.00
2019-04-26T01:54:07.783Z,0.00
2019-04-26T01:55:07.758Z,0.00
2019-04-26T01:56:07.732Z,0.00
2019-04-26T01:57:07.764Z,0.00
2019-04-26T01:58:07.737Z,0.00
2019-04-26T01:59:07.755Z,0.00
2019-04-26T02:00:07.731Z,0.00
2019-04-26T02:01:07.736Z,0.00
2019-04-26T02:02:07.662Z,0.00
2019-04-26T02:03:07.653Z,0.00
2019-04-26T02:04:07.672Z,0.00
2019-04-26T02:05:07.633Z,0.00
2019-04-26T02:06:07.643Z,0.00
2019-04-26T02:07:07.650Z,0.00
2019-04-26T02:08:07.654Z,0.00
2019-04-26T02:09:07.582Z,0.00
2019-04-26T02:10:07.576Z,0.00
2019-04-26T02:11:07.563Z,0.00
2019-04-26T02:12:07.585Z,0.00
2019-04-26T02:13:07.568Z,0.00
2019-04-26T02:14:07.528Z,0.00
2019-04-26T02:15:07.545Z,0.00
2019-04-26T02:16:07.517Z,0.00
2019-04-26T02:17:07.523Z,0.00
2019-04-26T02:18:07.508Z,0.00
2019-04-26T02:19:07.483Z,0.00
2019-04-26T02:20:07.478Z,0.00
2019-04-26T02:21:07.459Z,0.00
2019-04-26T02:22:07.452Z,0.00
2019-04-26T02:23:07.458Z,0.00
2019-04-26T02:24:07.453Z,0.00
2019-04-26T02:25:07.409Z,0.00
2019-04-26T02:26:07.397Z,0.00
2019-04-26T02:27:07.434Z,0.00
2019-04-26T02:28:07.398Z,0.00
2019-04-26T02:29:07.427Z,0.00
2019-04-26T02:30:07.354Z,0.00
2019-04-26T02:31:07.369Z,0.00
2019-04-26T02:32:07.410Z,0.00
2019-04-26T02:33:07.353Z,0.00
2019-04-26T02:34:07.407Z,0.00
2019-04-26T02:35:07.299Z,0.00
2019-04-26T02:36:07.344Z,0.00
2019-04-26T02:37:07.310Z,0.00
2019-04-26T02:38:07.278Z,0.00
2019-04-26T02:39:07.304Z,0.00
2019-04-26T02:40:07.251Z,0.00
2019-04-26T02:41:07.277Z,0.00
2019-04-26T02:42:07.239Z,0.00
2019-04-26T02:43:07.238Z,0.00
2019-04-26T02:44:07.232Z,0.00
2019-04-26T02:45:07.188Z,0.00
2019-04-26T02:46:07.184Z,0.00
2019-04-26T02:47:07.203Z,0.00
2019-04-26T02:48:07.162Z,0.00
2019-04-26T02:49:07.191Z,0.00
2019-04-26T02:50:07.180Z,0.00
2019-04-26T02:51:07.154Z,0.00
2019-04-26T02:52:07.138Z,0.00
2019-04-26T02:53:07.114Z,0.00
2019-04-26T02:54:07.155Z,0.00
2019-04-26T02:55:07.077Z,0.00
2019-04-26T02:56:07.110Z,0.00
2019-04-26T02:57:07.142Z,0.00
2019-04-26T02:58:07.046Z,0.00
2019-04-26T02:59:07.121Z,0.00
2019-04-26T03:01:26.195Z,0.00
2019-04-26T03:04:00.203Z,0.00
2019-04-26T03:05:38.008Z,0.00
2019-04-26T03:05:39.647Z,0.00
2019-04-26T03:06:37.281Z,0.00
2019-04-26T03:07:37.584Z,0.00
2019-04-26T03:08:37.782Z,0.00
2019-04-26T03:09:37.034Z,0.00
2019-04-26T03:10:38.160Z,0.00
2019-04-26T03:11:37.110Z,0.00
2019-04-26T03:12:37.696Z,0.00
2019-04-26T03:13:36.923Z,0.00
2019-04-26T03:14:37.091Z,0.00
2019-04-26T03:15:37.200Z,0.00
2019-04-26T03:16:37.279Z,0.00
2019-04-26T03:17:37.654Z,0.00
2019-04-26T03:18:37.369Z,0.00
2019-04-26T03:19:37.756Z,0.00
2019-04-26T03:20:36.365Z,0.00
2019-04-26T03:21:37.671Z,0.00
2019-04-26T03:22:37.348Z,0.00
2019-04-26T03:23:56.066Z,0.00
2019-04-26T03:24:38.607Z,0.00
2019-04-26T03:25:36.961Z,0.00
2019-04-26T03:26:37.416Z,0.00
2019-04-26T03:27:38.054Z,0.00
2019-04-26T03:28:37.651Z,0.00
2019-04-26T03:29:37.447Z,0.00
2019-04-26T03:30:42.753Z,0.00
2019-04-26T03:31:46.006Z,0.00
2019-04-26T03:32:47.887Z,0.00
2019-04-26T03:33:45.237Z,0.00
2019-04-26T03:34:45.566Z,0.00
2019-04-26T03:35:44.928Z,0.00
2019-04-26T03:36:39.126Z,0.00
2019-04-26T03:37:36.622Z,0.00
2019-04-26T03:38:37.722Z,0.00
2019-04-26T03:39:37.112Z,0.00
2019-04-26T03:40:38.128Z,0.00
2019-04-26T03:41:37.128Z,0.00
2019-04-26T03:42:37.053Z,0.00
2019-04-26T03:43:36.826Z,0.00
2019-04-26T03:44:37.053Z,0.00
2019-04-26T03:45:37.092Z,0.00
2019-04-26T03:46:37.597Z,0.00
2019-04-26T03:47:39.766Z,0.00
2019-04-26T03:48:37.301Z,0.00
2019-04-26T03:49:37.397Z,0.00
2019-04-26T03:50:37.327Z,0.00
2019-04-26T03:51:37.526Z,0.00
2019-04-26T03:52:37.430Z,0.00
2019-04-26T03:53:37.678Z,0.00
2019-04-26T03:54:39.373Z,0.00
2019-04-26T03:55:36.393Z,0.00
2019-04-26T03:56:36.644Z,0.00
2019-04-26T03:57:36.958Z,0.00
2019-04-26T03:58:37.760Z,0.00
2019-04-26T03:59:36.898Z,0.00
2019-04-26T04:00:37.204Z,0.00
2019-04-26T04:01:37.390Z,0.00
2019-04-26T04:02:37.572Z,0.00
2019-04-26T04:03:37.844Z,0.00
2019-04-26T04:04:37.273Z,0.00
2019-04-26T04:05:37.386Z,0.00
2019-04-26T04:06:52.729Z,0.00
2019-04-26T04:07:45.173Z,0.00
2019-04-26T04:08:38.479Z,0.00
2019-04-26T04:09:35.844Z,0.00
2019-04-26T04:10:37.403Z,0.00
2019-04-26T04:11:36.431Z,0.00
2019-04-26T04:12:36.205Z,0.00
2019-04-26T04:13:36.769Z,0.00
2019-04-26T04:14:37.681Z,0.00
2019-04-26T04:15:37.935Z,0.00
2019-04-26T04:16:37.029Z,0.00
2019-04-26T04:17:37.352Z,0.00
2019-04-26T04:18:36.827Z,0.00
2019-04-26T04:19:37.271Z,0.00
2019-04-26T04:20:35.484Z,0.00
2019-04-26T04:21:35.447Z,0.00
2019-04-26T04:22:35.439Z,0.00
2019-04-26T04:23:35.424Z,0.00
2019-04-26T04:24:35.428Z,0.00
2019-04-26T04:25:35.447Z,0.00
2019-04-26T04:26:35.422Z,0.00
2019-04-26T04:27:35.377Z,0.00
2019-04-26T04:28:35.370Z,0.00
2019-04-26T04:29:42.211Z,0.00
2019-04-26T04:30:36.382Z,0.00
2019-04-26T04:31:35.351Z,0.00
2019-04-26T04:32:35.322Z,0.00
2019-04-26T04:33:35.310Z,0.00
2019-04-26T04:34:35.297Z,0.00
2019-04-26T04:35:35.313Z,0.00
2019-04-26T04:36:35.276Z,0.00
2019-04-26T04:37:35.305Z,0.00
2019-04-26T04:38:35.259Z,0.00
2019-04-26T04:39:35.275Z,0.00
2019-04-26T04:40:35.264Z,0.00
2019-04-26T04:41:35.222Z,0.00
2019-04-26T04:42:35.246Z,0.00
2019-04-26T04:43:35.258Z,0.00
2019-04-26T04:44:35.201Z,0.00
2019-04-26T04:45:35.225Z,0.00
2019-04-26T04:46:35.195Z,0.00
2019-04-26T04:47:35.190Z,0.00
2019-04-26T04:48:35.246Z,0.00
2019-04-26T04:49:35.209Z,0.00
2019-04-26T04:50:35.135Z,0.00
2019-04-26T04:51:35.115Z,0.00
2019-04-26T04:52:35.103Z,0.00
2019-04-26T04:53:35.087Z,5.62
2019-04-26T04:54:35.083Z,5.62
2019-04-26T04:55:35.135Z,5.62
2019-04-26T04:56:35.085Z,5.62
2019-04-26T04:57:35.101Z,5.62
2019-04-26T04:58:35.039Z,5.62
2019-04-26T04:59:35.047Z,11.25
2019-04-26T05:00:36.126Z,11.25
2019-04-26T05:01:35.026Z,11.25
2019-04-26T05:02:35.025Z,11.25
2019-04-26T05:03:34.995Z,11.25
2019-04-26T05:04:35.013Z,11.25
2019-04-26T05:05:34.967Z,11.25
2019-04-26T05:06:34.996Z,5.62
2019-04-26T05:07:34.936Z,5.62
2019-04-26T05:08:34.925Z,5.62
2019-04-26T05:09:34.935Z,5.62
2019-04-26T05:10:34.902Z,5.62
2019-04-26T05:11:34.901Z,5.62
2019-04-26T05:12:34.937Z,5.62
2019-04-26T05:13:34.892Z,5.62
2019-04-26T05:14:34.887Z,5.62
2019-04-26T05:15:34.862Z,5.62
2019-04-26T05:16:34.865Z,5.62
2019-04-26T05:17:34.837Z,5.62
2019-04-26T05:18:34.834Z,5.62
2019-04-26T05:19:34.801Z,5.62
2019-04-26T05:20:34.803Z,5.62
2019-04-26T05:21:34.848Z,5.62
2019-04-26T05:22:34.785Z,5.62
2019-04-26T05:23:34.768Z,11.25
2019-04-26T05:24:34.776Z,11.25
2019-04-26T05:25:34.748Z,11.25
2019-04-26T05:26:34.752Z,11.25
2019-04-26T05:27:34.769Z,5.62
2019-04-26T05:28:34.734Z,5.62
2019-04-26T05:29:34.723Z,11.25
2019-04-26T05:30:34.740Z,11.25
2019-04-26T05:31:34.756Z,11.25
2019-04-26T05:32:34.721Z,11.25
2019-04-26T05:33:34.674Z,11.25
2019-04-26T05:34:34.654Z,11.25
2019-04-26T05:35:34.643Z,11.25
2019-04-26T05:36:34.699Z,11.25
2019-04-26T05:37:37.053Z,11.25
2019-04-26T05:38:34.620Z,11.25
2019-04-26T05:39:34.603Z,11.25
2019-04-26T05:40:34.598Z,11.25
2019-04-26T05:41:34.670Z,11.25
2019-04-26T05:42:34.592Z,11.25
2019-04-26T05:43:34.548Z,11.25
2019-04-26T05:44:34.581Z,11.25
2019-04-26T05:45:34.543Z,11.25
2019-04-26T05:46:34.534Z,11.25
2019-04-26T05:47:34.521Z,11.25
2019-04-26T05:48:34.542Z,11.25
2019-04-26T05:49:34.530Z,5.62
2019-04-26T05:50:34.503Z,5.62
2019-04-26T05:51:34.530Z,5.62
2019-04-26T05:52:34.447Z,5.62
2019-04-26T05:53:34.470Z,5.62
2019-04-26T05:54:34.470Z,5.62
2019-04-26T05:55:34.851Z,5.62
2019-04-26T05:56:34.495Z,5.62
2019-04-26T05:57:36.320Z,5.62
2019-04-26T05:58:34.425Z,5.62
2019-04-26T05:59:34.472Z,5.62
2019-04-26T06:00:34.460Z,5.62
2019-04-26T06:01:34.388Z,5.62
2019-04-26T06:02:34.389Z,5.62
2019-04-26T06:03:34.344Z,11.25
2019-04-26T06:04:34.378Z,11.25
2019-04-26T06:05:34.307Z,11.25
2019-04-26T06:06:34.312Z,11.25
2019-04-26T06:07:34.276Z,11.25
2019-04-26T06:08:34.274Z,11.25
2019-04-26T06:09:34.260Z,11.25
2019-04-26T06:10:34.286Z,11.25
2019-04-26T06:11:34.232Z,11.25
2019-04-26T06:12:34.246Z,11.25
2019-04-26T06:13:34.240Z,11.25
2019-04-26T06:14:34.221Z,11.25
2019-04-26T06:15:34.229Z,11.25
2019-04-26T06:16:34.202Z,11.25
2019-04-26T06:17:34.190Z,5.62
2019-04-26T06:18:34.200Z,5.62
2019-04-26T06:19:34.167Z,5.62
2019-04-26T06:20:34.134Z,5.62
2019-04-26T06:21:34.146Z,5.62
2019-04-26T06:22:34.194Z,11.25
2019-04-26T06:23:34.119Z,11.25
2019-04-26T06:24:34.090Z,11.25
2019-04-26T06:25:34.149Z,11.25
2019-04-26T06:26:34.091Z,11.25
2019-04-26T06:27:34.093Z,11.25
2019-04-26T06:28:34.051Z,11.25
2019-04-26T06:29:34.035Z,11.25
2019-04-26T06:30:45.040Z,11.25
2019-04-26T06:31:35.042Z,5.62
2019-04-26T06:32:34.191Z,5.62
2019-04-26T06:33:34.013Z,5.62
2019-04-26T06:34:34.017Z,5.62
2019-04-26T06:35:33.973Z,5.62
2019-04-26T06:36:34.306Z,5.62
2019-04-26T06:37:33.968Z,5.62
2019-04-26T06:38:43.277Z,5.62
2019-04-26T06:39:34.922Z,5.62
2019-04-26T06:40:41.801Z,5.62
2019-04-26T06:41:34.943Z,5.62
2019-04-26T06:42:33.940Z,5.62
2019-04-26T06:43:33.931Z,5.62
2019-04-26T06:44:33.935Z,5.62
2019-04-26T06:45:33.890Z,5.62
2019-04-26T06:46:33.849Z,5.62
2019-04-26T06:47:33.874Z,5.62
2019-04-26T06:48:33.913Z,5.62
2019-04-26T06:49:33.809Z,5.62
2019-04-26T06:50:33.822Z,5.62
2019-04-26T06:51:33.815Z,5.62
2019-04-26T06:52:33.802Z,5.62
2019-04-26T06:53:33.833Z,5.62
2019-04-26T06:54:33.775Z,5.62
2019-04-26T06:55:33.764Z,5.62
2019-04-26T06:56:33.757Z,5.62
2019-04-26T06:57:33.779Z,5.62
2019-04-26T06:58:33.799Z,11.25
2019-04-26T06:59:36.530Z,11.25
2019-04-26T07:00:33.700Z,11.25
2019-04-26T07:01:33.743Z,11.25
2019-04-26T07:02:33.697Z,11.25
2019-04-26T07:03:33.666Z,16.88
2019-04-26T07:04:33.669Z,16.88
2019-04-26T07:05:33.708Z,16.88
2019-04-26T07:06:35.258Z,22.50
2019-04-26T07:07:33.619Z,22.50
2019-04-26T07:08:33.624Z,22.50
2019-04-26T07:09:33.652Z,22.50
2019-04-26T07:10:33.610Z,22.50
2019-04-26T07:11:33.602Z,28.12
2019-04-26T07:12:33.575Z,28.12
2019-04-26T07:13:33.576Z,28.12
2019-04-26T07:14:33.559Z,28.12
2019-04-26T07:15:33.585Z,28.12
2019-04-26T07:16:33.519Z,28.12
2019-04-26T07:17:33.537Z,28.12
2019-04-26T07:18:33.522Z,28.12
2019-04-26T07:19:33.487Z,28.12
2019-04-26T07:20:33.489Z,28.12
2019-04-26T07:21:33.480Z,22.50
2019-04-26T07:22:35.433Z,22.50
2019-04-26T07:23:33.522Z,22.50
2019-04-26T07:24:33.428Z,16.88
2019-04-26T07:25:33.451Z,16.88
2019-04-26T07:26:33.416Z,16.88
2019-04-26T07:27:33.416Z,16.88
2019-04-26T07:28:33.528Z,16.88
2019-04-26T07:29:33.397Z,22.50
2019-04-26T07:30:33.366Z,22.50
2019-04-26T07:31:33.368Z,28.12
2019-04-26T07:32:33.342Z,28.12
2019-04-26T07:33:33.368Z,28.12
2019-04-26T07:34:33.370Z,28.12
2019-04-26T07:35:33.339Z,28.12
2019-04-26T07:36:33.293Z,22.50
2019-04-26T07:37:33.283Z,22.50
2019-04-26T07:38:33.378Z,22.50
2019-04-26T07:39:33.291Z,22.50
2019-04-26T07:40:33.397Z,22.50
2019-04-26T07:41:33.312Z,22.50
2019-04-26T07:42:33.275Z,22.50
2019-04-26T07:43:33.322Z,16.88
2019-04-26T07:44:33.260Z,16.88
2019-04-26T07:45:33.217Z,16.88
2019-04-26T07:46:33.207Z,22.50
2019-04-26T07:47:33.189Z,22.50
2019-04-26T07:48:33.210Z,22.50
2019-04-26T07:49:33.154Z,28.12
2019-04-26T07:50:33.147Z,28.12
2019-04-26T07:51:33.130Z,33.75
2019-04-26T07:52:33.151Z,33.75
2019-04-26T07:53:33.200Z,33.75
2019-04-26T07:54:33.138Z,33.75
2019-04-26T07:55:33.137Z,33.75
2019-04-26T07:56:33.100Z,39.38
2019-04-26T07:57:33.089Z,33.75
2019-04-26T07:58:33.127Z,33.75
2019-04-26T07:59:33.086Z,33.75
2019-04-26T08:00:44.413Z,33.75
2019-04-26T08:01:34.066Z,33.75
2019-04-26T08:02:33.047Z,33.75
2019-04-26T08:03:33.020Z,33.75
2019-04-26T08:04:33.008Z,33.75
2019-04-26T08:05:34.054Z,33.75
2019-04-26T08:06:32.977Z,33.75
2019-04-26T08:07:32.969Z,28.12
2019-04-26T08:08:33.023Z,22.50
2019-04-26T08:09:32.963Z,28.12
2019-04-26T08:10:32.942Z,28.12
2019-04-26T08:11:32.932Z,33.75
2019-04-26T08:12:32.920Z,33.75
2019-04-26T08:13:32.962Z,39.38
2019-04-26T08:14:32.891Z,39.38
2019-04-26T08:15:32.862Z,33.75
2019-04-26T08:16:32.874Z,45.00
2019-04-26T08:17:32.855Z,45.00
2019-04-26T08:18:32.838Z,39.38
2019-04-26T08:19:32.876Z,39.38
2019-04-26T08:20:33.148Z,33.75
2019-04-26T08:21:32.819Z,28.12
2019-04-26T08:22:33.876Z,22.50
2019-04-26T08:23:42.198Z,22.50
2019-04-26T08:24:33.820Z,22.50
2019-04-26T08:25:32.760Z,28.12
2019-04-26T08:26:32.806Z,28.12
2019-04-26T08:27:32.752Z,28.12
2019-04-26T08:28:32.760Z,28.12
2019-04-26T08:29:33.339Z,33.75
2019-04-26T08:30:32.723Z,33.75
2019-04-26T08:31:32.706Z,39.38
2019-04-26T08:32:33.456Z,45.00
2019-04-26T08:33:32.684Z,45.00
2019-04-26T08:34:33.826Z,45.00
2019-04-26T08:35:32.658Z,45.00
2019-04-26T08:36:32.659Z,39.38
2019-04-26T08:37:36.535Z,39.38
2019-04-26T08:38:32.636Z,39.38
2019-04-26T08:39:44.897Z,33.75
2019-04-26T08:40:33.610Z,33.75
2019-04-26T08:41:35.290Z,28.12
2019-04-26T08:42:33.580Z,28.12
2019-04-26T08:43:32.602Z,28.12
2019-04-26T08:44:34.457Z,28.12
2019-04-26T08:45:32.580Z,28.12
2019-04-26T08:46:36.242Z,28.12
2019-04-26T08:47:32.571Z,28.12
2019-04-26T08:48:32.530Z,28.12
2019-04-26T08:49:35.157Z,28.12
2019-04-26T08:50:33.496Z,28.12
2019-04-26T08:51:32.523Z,22.50
2019-04-26T08:52:32.486Z,28.12
2019-04-26T08:53:32.518Z,28.12
2019-04-26T08:54:32.704Z,28.12
2019-04-26T08:55:32.469Z,33.75
2019-04-26T08:56:32.429Z,33.75
2019-04-26T08:57:32.441Z,33.75
2019-04-26T08:58:32.499Z,39.38
2019-04-26T08:59:32.401Z,39.38
2019-04-26T09:00:32.435Z,39.38
2019-04-26T09:01:32.393Z,39.38
2019-04-26T09:02:32.383Z,39.38
2019-04-26T09:03:32.529Z,39.38
2019-04-26T09:04:32.353Z,39.38
2019-04-26T09:05:32.356Z,39.38
2019-04-26T09:06:32.297Z,39.38
2019-04-26T09:07:32.307Z,39.38
2019-04-26T09:08:32.352Z,45.00
2019-04-26T09:09:32.455Z,45.00
2019-04-26T09:10:32.310Z,45.00
2019-04-26T09:11:33.942Z,45.00
2019-04-26T09:12:32.288Z,50.62
2019-04-26T09:13:32.274Z,56.25
2019-04-26T09:14:32.268Z,61.88
2019-04-26T09:15:32.242Z,67.50
2019-04-26T09:16:32.212Z,73.12
2019-04-26T09:17:33.762Z,73.12
2019-04-26T09:18:42.508Z,73.12
2019-04-26T09:19:33.193Z,73.12
2019-04-26T09:20:32.186Z,73.12
2019-04-26T09:21:32.180Z,67.50
2019-04-26T09:22:32.191Z,73.12
2019-04-26T09:23:39.849Z,73.12
2019-04-26T09:24:33.147Z,67.50
2019-04-26T09:25:34.421Z,73.12
2019-04-26T09:26:33.130Z,73.12
2019-04-26T09:27:32.086Z,67.50
2019-04-26T09:28:32.068Z,61.88
2019-04-26T09:29:32.205Z,67.50
2019-04-26T09:30:34.051Z,67.50
2019-04-26T09:31:32.035Z,67.50
2019-04-26T09:32:32.011Z,67.50
2019-04-26T09:33:35.906Z,61.88
2019-04-26T09:34:33.015Z,50.62
2019-04-26T09:35:31.994Z,61.88
2019-04-26T09:36:31.968Z,61.88
2019-04-26T09:37:31.961Z,61.88
2019-04-26T09:38:31.958Z,67.50
2019-04-26T09:39:31.997Z,73.12
2019-04-26T09:40:31.927Z,67.50
2019-04-26T09:41:32.192Z,73.12
2019-04-26T09:42:31.916Z,78.75
2019-04-26T09:43:31.910Z,78.75
2019-04-26T09:44:31.922Z,73.12
2019-04-26T09:45:31.901Z,73.12
2019-04-26T09:46:31.862Z,73.12
2019-04-26T09:47:31.899Z,73.12
2019-04-26T09:48:31.862Z,73.12
2019-04-26T09:49:31.900Z,67.50
2019-04-26T09:50:31.849Z,67.50
2019-04-26T09:51:34.838Z,67.50
2019-04-26T09:52:32.845Z,67.50
2019-04-26T09:53:31.805Z,67.50
2019-04-26T09:54:31.806Z,56.25
2019-04-26T09:55:35.405Z,56.25
2019-04-26T09:56:31.775Z,56.25
2019-04-26T09:57:31.800Z,56.25
2019-04-26T09:58:32.249Z,50.62
2019-04-26T09:59:31.747Z,50.62
2019-04-26T10:00:31.739Z,56.25
2019-04-26T10:01:31.712Z,61.88
2019-04-26T10:02:33.888Z,61.88
2019-04-26T10:03:34.232Z,67.50
2019-04-26T10:04:31.690Z,61.88
2019-04-26T10:05:31.665Z,61.88
2019-04-26T10:06:31.672Z,61.88
2019-04-26T10:07:33.426Z,61.88
2019-04-26T10:08:32.650Z,61.88
2019-04-26T10:09:31.615Z,67.50
2019-04-26T10:10:35.200Z,61.88
2019-04-26T10:11:31.594Z,67.50
2019-04-26T10:12:31.606Z,67.50
2019-04-26T10:13:31.581Z,67.50
2019-04-26T10:14:31.562Z,61.88
2019-04-26T10:15:31.587Z,61.88
2019-04-26T10:16:33.604Z,61.88
2019-04-26T10:17:32.561Z,73.12
2019-04-26T10:18:31.527Z,73.12
2019-04-26T10:19:31.905Z,78.75
2019-04-26T10:20:31.584Z,78.75
2019-04-26T10:21:31.503Z,78.75
2019-04-26T10:22:31.526Z,78.75
2019-04-26T10:23:31.459Z,78.75
2019-04-26T10:24:31.450Z,78.75
2019-04-26T10:25:31.453Z,78.75
2019-04-26T10:26:31.444Z,84.38
2019-04-26T10:27:32.517Z,73.12
2019-04-26T10:28:31.426Z,61.88
2019-04-26T10:29:31.408Z,61.88
2019-04-26T10:30:31.399Z,61.88
2019-04-26T10:31:31.398Z,56.25
2019-04-26T10:32:31.437Z,50.62
2019-04-26T10:33:32.595Z,50.62
2019-04-26T10:34:31.339Z,50.62
2019-04-26T10:35:31.371Z,45.00
2019-04-26T10:36:31.532Z,45.00
2019-04-26T10:37:39.202Z,50.62
2019-04-26T10:38:32.344Z,56.25
2019-04-26T10:39:32.414Z,56.25
2019-04-26T10:40:35.686Z,61.88
2019-04-26T10:41:31.333Z,67.50
2019-04-26T10:42:31.335Z,67.50
2019-04-26T10:43:31.290Z,67.50
2019-04-26T10:44:31.322Z,67.50
2019-04-26T10:45:31.249Z,67.50
2019-04-26T10:46:31.247Z,67.50
2019-04-26T10:47:34.296Z,73.12
2019-04-26T10:48:31.216Z,73.12
2019-04-26T10:49:31.170Z,78.75
2019-04-26T10:50:32.967Z,78.75
2019-04-26T10:51:31.162Z,78.75
2019-04-26T10:52:31.196Z,78.75
2019-04-26T10:53:31.960Z,84.38
2019-04-26T10:54:31.132Z,73.12
2019-04-26T10:55:31.102Z,67.50
2019-04-26T10:56:31.157Z,61.88
2019-04-26T10:57:31.151Z,61.88
2019-04-26T10:58:31.942Z,61.88
2019-04-26T10:59:31.849Z,56.25
2019-04-26T11:00:31.068Z,50.62
2019-04-26T11:01:31.058Z,50.62
2019-04-26T11:02:31.127Z,50.62
2019-04-26T11:03:31.061Z,50.62
2019-04-26T11:04:31.050Z,50.62
2019-04-26T11:05:31.038Z,56.25
2019-04-26T11:06:31.049Z,56.25
2019-04-26T11:07:31.107Z,56.25
2019-04-26T11:08:30.969Z,61.88
2019-04-26T11:09:30.970Z,61.88
2019-04-26T11:10:30.952Z,56.25
2019-04-26T11:11:30.991Z,56.25
2019-04-26T11:12:30.932Z,56.25
2019-04-26T11:13:30.951Z,56.25
2019-04-26T11:14:30.929Z,56.25
2019-04-26T11:15:32.594Z,56.25
2019-04-26T11:16:30.889Z,56.25
2019-04-26T11:17:30.962Z,56.25
2019-04-26T11:18:31.007Z,56.25
2019-04-26T11:19:32.000Z,56.25
2019-04-26T11:20:30.858Z,50.62
2019-04-26T11:21:30.809Z,45.00
2019-04-26T11:22:33.414Z,39.38
2019-04-26T11:23:31.842Z,39.38
2019-04-26T11:24:31.060Z,45.00
2019-04-26T11:25:30.797Z,45.00
2019-04-26T11:26:30.990Z,50.62
2019-04-26T11:27:30.793Z,50.62
2019-04-26T11:28:30.732Z,50.62
2019-04-26T11:29:30.777Z,50.62
2019-04-26T11:30:30.800Z,56.25
2019-04-26T11:31:30.790Z,50.62
2019-04-26T11:32:33.136Z,50.62
2019-04-26T11:33:31.727Z,50.62
2019-04-26T11:34:30.755Z,56.25
2019-04-26T11:35:33.205Z,50.62
2019-04-26T11:36:30.697Z,50.62
2019-04-26T11:37:30.659Z,50.62
2019-04-26T11:38:31.577Z,50.62
2019-04-26T11:39:30.659Z,50.62
2019-04-26T11:40:30.660Z,50.62
2019-04-26T11:41:34.029Z,56.25
2019-04-26T11:42:30.656Z,56.25
2019-04-26T11:43:30.603Z,56.25
2019-04-26T11:44:30.592Z,56.25
2019-04-26T11:45:30.550Z,56.25
2019-04-26T11:46:30.644Z,56.25
2019-04-26T11:47:30.546Z,56.25
2019-04-26T11:48:30.733Z,61.88
2019-04-26T11:49:30.561Z,67.50
2019-04-26T11:50:30.833Z,67.50
2019-04-26T11:51:30.548Z,73.12
2019-04-26T11:52:32.138Z,78.75
2019-04-26T11:53:33.431Z,78.75
2019-04-26T11:54:30.478Z,78.75
2019-04-26T11:55:31.494Z,78.75
2019-04-26T11:56:30.463Z,73.12
2019-04-26T11:57:30.451Z,73.12
2019-04-26T11:58:30.432Z,73.12
2019-04-26T11:59:31.670Z,73.12
2019-04-26T12:00:30.413Z,78.75
2019-04-26T12:01:30.412Z,78.75
2019-04-26T12:02:30.384Z,78.75
2019-04-26T12:03:30.451Z,84.38
2019-04-26T12:04:30.428Z,90.00
2019-04-26T12:05:30.365Z,95.62
2019-04-26T12:06:30.324Z,95.62
2019-04-26T12:07:30.349Z,95.62
2019-04-26T12:08:30.365Z,95.62
2019-04-26T12:09:30.331Z,95.62
2019-04-26T12:10:30.318Z,78.75
2019-04-26T12:11:35.045Z,84.38
2019-04-26T12:12:30.285Z,78.75
2019-04-26T12:13:30.322Z,78.75
2019-04-26T12:14:33.488Z,78.75
2019-04-26T12:15:30.790Z,78.75
2019-04-26T12:16:30.243Z,78.75
2019-04-26T12:17:31.217Z,78.75
2019-04-26T12:18:30.398Z,78.75
2019-04-26T12:19:30.205Z,73.12
2019-04-26T12:20:30.167Z,73.12
2019-04-26T12:21:30.501Z,78.75
2019-04-26T12:22:30.180Z,78.75
2019-04-26T12:23:30.177Z,78.75
2019-04-26T12:24:34.299Z,78.75
2019-04-26T12:25:31.158Z,78.75
2019-04-26T12:26:42.136Z,84.38
2019-04-26T12:27:31.914Z,90.00
2019-04-26T12:28:30.123Z,90.00
2019-04-26T12:29:30.135Z,90.00
2019-04-26T12:30:30.062Z,84.38
2019-04-26T12:31:30.054Z,84.38
2019-04-26T12:32:30.089Z,84.38
2019-04-26T12:33:30.088Z,84.38
2019-04-26T12:34:30.029Z,84.38
2019-04-26T12:35:30.247Z,84.38
2019-04-26T12:36:29.996Z,78.75
2019-04-26T12:37:29.990Z,78.75
2019-04-26T12:38:30.131Z,73.12
2019-04-26T12:39:32.299Z,73.12
2019-04-26T12:40:30.993Z,67.50
2019-04-26T12:41:40.023Z,67.50
2019-04-26T12:42:30.941Z,61.88
2019-04-26T12:43:29.937Z,56.25
2019-04-26T12:44:32.183Z,56.25
2019-04-26T12:45:30.947Z,61.88
2019-04-26T12:46:31.956Z,61.88
2019-04-26T12:47:30.622Z,61.88
2019-04-26T12:48:29.893Z,61.88
2019-04-26T12:49:29.906Z,61.88
2019-04-26T12:50:36.538Z,61.88
2019-04-26T12:51:30.852Z,61.88
2019-04-26T12:52:29.802Z,61.88
2019-04-26T12:53:31.240Z,61.88
2019-04-26T12:54:29.920Z,67.50
2019-04-26T12:55:29.786Z,67.50
2019-04-26T12:56:31.255Z,67.50
2019-04-26T12:57:29.784Z,67.50
2019-04-26T12:58:29.749Z,61.88
2019-04-26T12:59:29.781Z,56.25
2019-04-26T13:00:33.027Z,56.25
2019-04-26T13:01:30.749Z,50.62
2019-04-26T13:02:29.738Z,50.62
2019-04-26T13:03:30.464Z,50.62
2019-04-26T13:04:36.013Z,50.62
2019-04-26T13:05:30.710Z,50.62
2019-04-26T13:06:32.012Z,50.62